sensor_id;sensor_type;location;lat;lon;timestamp;P1;durP1;ratioP1;P2;durP2;ratioP2
47155;SDS011;32908;52.344;16.858;2023-06-19T00:00:39;13.80;;;10.60;;
47155;SDS011;32908;52.344;16.858;2023-06-19T00:03:27;19.00;;;11.60;;
47155;SDS011;32908;52.344;16.858;2023-06-19T00:05:55;13.60;;;10.60;;
47155;SDS011;32908;52.344;16.858;2023-06-19T00:08:23;14.30;;;11.00;;
47155;SDS011;32908;52.344;16.858;2023-06-19T00:10:51;13.60;;;10.60;;
47155;SDS011;32908;52.344;16.858;2023-06-19T00:13:19;17.50;;;11.60;;
47155;SDS011;32908;52.344;16.858;2023-06-19T00:15:47;15.00;;;10.80;;
47155;SDS011;32908;52.344;16.858;2023-06-19T00:18:15;16.40;;;11.50;;
47155;SDS011;32908;52.344;16.858;2023-06-19T00:20:46;14.90;;;11.20;;
47155;SDS011;32908;52.344;16.858;2023-06-19T00:23:14;14.10;;;10.10;;
47155;SDS011;32908;52.344;16.858;2023-06-19T00:25:43;14.60;;;9.70;;
47155;SDS011;32908;52.344;16.858;2023-06-19T00:28:11;15.20;;;10.70;;
47155;SDS011;32908;52.344;16.858;2023-06-19T00:30:40;11.30;;;10.20;;
47155;SDS011;32908;52.344;16.858;2023-06-19T00:33:08;20.10;;;10.70;;
47155;SDS011;32908;52.344;16.858;2023-06-19T00:35:36;10.60;;;9.50;;
47155;SDS011;32908;52.344;16.858;2023-06-19T00:38:04;12.50;;;10.10;;
47155;SDS011;32908;52.344;16.858;2023-06-19T00:40:33;12.30;;;10.50;;
47155;SDS011;32908;52.344;16.858;2023-06-19T00:43:01;13.30;;;10.30;;
47155;SDS011;32908;52.344;16.858;2023-06-19T00:45:29;11.80;;;9.70;;
47155;SDS011;32908;52.344;16.858;2023-06-19T00:47:58;14.80;;;10.70;;
47155;SDS011;32908;52.344;16.858;2023-06-19T00:50:27;12.70;;;10.20;;
47155;SDS011;32908;52.344;16.858;2023-06-19T00:52:55;13.80;;;10.10;;
47155;SDS011;32908;52.344;16.858;2023-06-19T00:55:23;14.70;;;10.00;;
47155;SDS011;32908;52.344;16.858;2023-06-19T00:57:53;11.30;;;9.70;;
47155;SDS011;32908;52.344;16.858;2023-06-19T01:00:21;12.60;;;10.30;;
47155;SDS011;32908;52.344;16.858;2023-06-19T01:02:49;13.70;;;9.90;;
47155;SDS011;32908;52.344;16.858;2023-06-19T01:05:17;13.10;;;9.60;;
47155;SDS011;32908;52.344;16.858;2023-06-19T01:07:48;11.30;;;10.10;;
47155;SDS011;32908;52.344;16.858;2023-06-19T01:10:23;14.80;;;10.90;;
47155;SDS011;32908;52.344;16.858;2023-06-19T01:12:55;12.30;;;9.80;;
47155;SDS011;32908;52.344;16.858;2023-06-19T01:15:25;12.10;;;10.20;;
47155;SDS011;32908;52.344;16.858;2023-06-19T01:17:54;12.20;;;10.40;;
47155;SDS011;32908;52.344;16.858;2023-06-19T01:20:23;14.70;;;10.10;;
47155;SDS011;32908;52.344;16.858;2023-06-19T01:22:52;11.40;;;9.30;;
47155;SDS011;32908;52.344;16.858;2023-06-19T01:25:23;12.60;;;9.90;;
47155;SDS011;32908;52.344;16.858;2023-06-19T01:27:51;13.50;;;10.50;;
47155;SDS011;32908;52.344;16.858;2023-06-19T01:30:20;14.30;;;10.20;;
47155;SDS011;32908;52.344;16.858;2023-06-19T01:32:56;12.80;;;9.80;;
47155;SDS011;32908;52.344;16.858;2023-06-19T01:35:28;11.20;;;9.60;;
47155;SDS011;32908;52.344;16.858;2023-06-19T01:37:57;11.10;;;9.80;;
47155;SDS011;32908;52.344;16.858;2023-06-19T01:40:26;13.30;;;10.00;;
47155;SDS011;32908;52.344;16.858;2023-06-19T01:42:58;12.50;;;10.10;;
47155;SDS011;32908;52.344;16.858;2023-06-19T01:45:27;12.30;;;10.30;;
47155;SDS011;32908;52.344;16.858;2023-06-19T01:47:55;12.50;;;10.70;;
47155;SDS011;32908;52.344;16.858;2023-06-19T01:50:24;14.60;;;11.20;;
47155;SDS011;32908;52.344;16.858;2023-06-19T01:52:52;14.10;;;11.30;;
47155;SDS011;32908;52.344;16.858;2023-06-19T01:55:20;17.70;;;12.60;;
47155;SDS011;32908;52.344;16.858;2023-06-19T01:57:48;17.40;;;12.30;;
47155;SDS011;32908;52.344;16.858;2023-06-19T02:00:17;13.90;;;11.80;;
47155;SDS011;32908;52.344;16.858;2023-06-19T02:02:45;15.00;;;12.00;;
47155;SDS011;32908;52.344;16.858;2023-06-19T02:05:14;16.90;;;12.80;;
47155;SDS011;32908;52.344;16.858;2023-06-19T02:07:42;13.80;;;11.90;;
47155;SDS011;32908;52.344;16.858;2023-06-19T02:10:10;21.50;;;12.40;;
47155;SDS011;32908;52.344;16.858;2023-06-19T02:12:38;15.80;;;12.60;;
47155;SDS011;32908;52.344;16.858;2023-06-19T02:15:07;15.30;;;12.30;;
47155;SDS011;32908;52.344;16.858;2023-06-19T02:17:36;14.90;;;12.30;;
47155;SDS011;32908;52.344;16.858;2023-06-19T02:20:05;14.20;;;11.80;;
47155;SDS011;32908;52.344;16.858;2023-06-19T02:22:38;14.50;;;12.30;;
47155;SDS011;32908;52.344;16.858;2023-06-19T02:25:06;17.30;;;13.20;;
47155;SDS011;32908;52.344;16.858;2023-06-19T02:27:35;17.20;;;12.30;;
47155;SDS011;32908;52.344;16.858;2023-06-19T02:30:03;16.90;;;13.80;;
47155;SDS011;32908;52.344;16.858;2023-06-19T02:32:33;20.20;;;13.70;;
47155;SDS011;32908;52.344;16.858;2023-06-19T02:35:01;15.80;;;14.10;;
47155;SDS011;32908;52.344;16.858;2023-06-19T02:37:30;18.90;;;13.40;;
47155;SDS011;32908;52.344;16.858;2023-06-19T02:39:57;16.80;;;13.80;;
47155;SDS011;32908;52.344;16.858;2023-06-19T02:42:25;18.90;;;13.60;;
47155;SDS011;32908;52.344;16.858;2023-06-19T02:44:53;15.70;;;13.20;;
47155;SDS011;32908;52.344;16.858;2023-06-19T02:47:21;15.90;;;12.60;;
47155;SDS011;32908;52.344;16.858;2023-06-19T02:49:49;16.40;;;14.10;;
47155;SDS011;32908;52.344;16.858;2023-06-19T02:52:17;16.30;;;14.00;;
47155;SDS011;32908;52.344;16.858;2023-06-19T02:54:45;18.30;;;14.70;;
47155;SDS011;32908;52.344;16.858;2023-06-19T02:57:13;17.80;;;14.10;;
47155;SDS011;32908;52.344;16.858;2023-06-19T02:59:41;17.50;;;14.30;;
47155;SDS011;32908;52.344;16.858;2023-06-19T03:02:09;21.10;;;15.70;;
47155;SDS011;32908;52.344;16.858;2023-06-19T03:04:37;18.90;;;14.20;;
47155;SDS011;32908;52.344;16.858;2023-06-19T03:07:05;19.90;;;15.40;;
47155;SDS011;32908;52.344;16.858;2023-06-19T03:09:33;17.70;;;15.10;;
47155;SDS011;32908;52.344;16.858;2023-06-19T03:12:01;18.20;;;14.10;;
47155;SDS011;32908;52.344;16.858;2023-06-19T03:14:29;17.50;;;15.10;;
47155;SDS011;32908;52.344;16.858;2023-06-19T03:16:57;17.40;;;15.20;;
47155;SDS011;32908;52.344;16.858;2023-06-19T03:19:25;17.60;;;15.40;;
47155;SDS011;32908;52.344;16.858;2023-06-19T03:21:53;22.80;;;16.00;;
47155;SDS011;32908;52.344;16.858;2023-06-19T03:24:21;20.10;;;15.80;;
47155;SDS011;32908;52.344;16.858;2023-06-19T03:26:49;17.20;;;15.30;;
47155;SDS011;32908;52.344;16.858;2023-06-19T03:29:17;20.90;;;15.70;;
47155;SDS011;32908;52.344;16.858;2023-06-19T03:31:45;18.70;;;16.20;;
47155;SDS011;32908;52.344;16.858;2023-06-19T03:34:13;20.00;;;15.60;;
47155;SDS011;32908;52.344;16.858;2023-06-19T03:36:41;17.90;;;14.50;;
47155;SDS011;32908;52.344;16.858;2023-06-19T03:39:09;18.60;;;15.20;;
47155;SDS011;32908;52.344;16.858;2023-06-19T03:41:37;21.70;;;16.00;;
47155;SDS011;32908;52.344;16.858;2023-06-19T03:44:04;19.40;;;15.90;;
47155;SDS011;32908;52.344;16.858;2023-06-19T03:46:33;20.90;;;16.30;;
47155;SDS011;32908;52.344;16.858;2023-06-19T03:49:00;20.60;;;17.80;;
47155;SDS011;32908;52.344;16.858;2023-06-19T03:51:30;21.70;;;17.60;;
47155;SDS011;32908;52.344;16.858;2023-06-19T03:53:58;22.70;;;18.40;;
47155;SDS011;32908;52.344;16.858;2023-06-19T03:56:27;23.90;;;18.30;;
47155;SDS011;32908;52.344;16.858;2023-06-19T03:58:55;26.10;;;17.30;;
47155;SDS011;32908;52.344;16.858;2023-06-19T04:01:23;24.70;;;18.70;;
47155;SDS011;32908;52.344;16.858;2023-06-19T04:03:50;24.20;;;18.50;;
47155;SDS011;32908;52.344;16.858;2023-06-19T04:06:18;24.20;;;17.30;;
47155;SDS011;32908;52.344;16.858;2023-06-19T04:08:46;19.00;;;16.60;;
47155;SDS011;32908;52.344;16.858;2023-06-19T04:11:14;19.50;;;17.20;;
47155;SDS011;32908;52.344;16.858;2023-06-19T04:13:42;19.90;;;17.80;;
47155;SDS011;32908;52.344;16.858;2023-06-19T04:16:10;21.30;;;17.90;;
47155;SDS011;32908;52.344;16.858;2023-06-19T04:18:38;25.30;;;18.00;;
47155;SDS011;32908;52.344;16.858;2023-06-19T04:21:06;21.80;;;16.90;;
47155;SDS011;32908;52.344;16.858;2023-06-19T04:23:34;20.40;;;16.50;;
47155;SDS011;32908;52.344;16.858;2023-06-19T04:26:02;23.00;;;17.30;;
47155;SDS011;32908;52.344;16.858;2023-06-19T04:28:30;19.40;;;17.20;;
47155;SDS011;32908;52.344;16.858;2023-06-19T04:30:58;20.20;;;17.90;;
47155;SDS011;32908;52.344;16.858;2023-06-19T04:33:27;21.00;;;18.20;;
47155;SDS011;32908;52.344;16.858;2023-06-19T04:35:55;21.50;;;17.80;;
47155;SDS011;32908;52.344;16.858;2023-06-19T04:38:23;19.90;;;17.60;;
47155;SDS011;32908;52.344;16.858;2023-06-19T04:40:50;22.30;;;19.00;;
47155;SDS011;32908;52.344;16.858;2023-06-19T04:43:18;21.60;;;17.70;;
47155;SDS011;32908;52.344;16.858;2023-06-19T04:45:46;20.10;;;17.50;;
47155;SDS011;32908;52.344;16.858;2023-06-19T04:48:14;21.10;;;18.20;;
47155;SDS011;32908;52.344;16.858;2023-06-19T04:50:42;21.70;;;18.30;;
47155;SDS011;32908;52.344;16.858;2023-06-19T04:53:10;24.40;;;19.30;;
47155;SDS011;32908;52.344;16.858;2023-06-19T04:55:38;21.70;;;17.80;;
47155;SDS011;32908;52.344;16.858;2023-06-19T04:58:06;22.90;;;18.30;;
47155;SDS011;32908;52.344;16.858;2023-06-19T05:00:34;22.60;;;18.10;;
47155;SDS011;32908;52.344;16.858;2023-06-19T05:03:02;22.10;;;18.80;;
47155;SDS011;32908;52.344;16.858;2023-06-19T05:05:30;28.40;;;19.40;;
47155;SDS011;32908;52.344;16.858;2023-06-19T05:07:59;20.20;;;18.10;;
47155;SDS011;32908;52.344;16.858;2023-06-19T05:10:28;22.90;;;18.60;;
47155;SDS011;32908;52.344;16.858;2023-06-19T05:12:55;22.40;;;18.30;;
47155;SDS011;32908;52.344;16.858;2023-06-19T05:15:23;19.90;;;17.80;;
47155;SDS011;32908;52.344;16.858;2023-06-19T05:17:51;22.00;;;18.50;;
47155;SDS011;32908;52.344;16.858;2023-06-19T05:20:19;21.00;;;17.60;;
47155;SDS011;32908;52.344;16.858;2023-06-19T05:22:47;21.80;;;18.60;;
47155;SDS011;32908;52.344;16.858;2023-06-19T05:25:15;19.40;;;16.30;;
47155;SDS011;32908;52.344;16.858;2023-06-19T05:27:43;25.10;;;16.90;;
47155;SDS011;32908;52.344;16.858;2023-06-19T05:30:12;21.60;;;17.60;;
47155;SDS011;32908;52.344;16.858;2023-06-19T05:32:40;20.50;;;16.60;;
47155;SDS011;32908;52.344;16.858;2023-06-19T05:35:08;18.90;;;17.00;;
47155;SDS011;32908;52.344;16.858;2023-06-19T05:37:36;19.60;;;17.20;;
47155;SDS011;32908;52.344;16.858;2023-06-19T05:40:06;22.00;;;17.60;;
47155;SDS011;32908;52.344;16.858;2023-06-19T05:42:36;18.90;;;16.70;;
47155;SDS011;32908;52.344;16.858;2023-06-19T05:45:05;17.70;;;15.80;;
47155;SDS011;32908;52.344;16.858;2023-06-19T05:47:34;17.10;;;15.40;;
47155;SDS011;32908;52.344;16.858;2023-06-19T05:50:02;17.20;;;15.40;;
47155;SDS011;32908;52.344;16.858;2023-06-19T05:52:30;22.80;;;15.90;;
47155;SDS011;32908;52.344;16.858;2023-06-19T05:54:59;19.20;;;15.10;;
47155;SDS011;32908;52.344;16.858;2023-06-19T05:57:27;14.90;;;13.20;;
47155;SDS011;32908;52.344;16.858;2023-06-19T05:59:55;18.00;;;13.90;;
47155;SDS011;32908;52.344;16.858;2023-06-19T06:02:22;22.80;;;16.10;;
47155;SDS011;32908;52.344;16.858;2023-06-19T06:04:50;23.60;;;15.70;;
47155;SDS011;32908;52.344;16.858;2023-06-19T06:07:18;18.10;;;14.10;;
47155;SDS011;32908;52.344;16.858;2023-06-19T06:09:46;18.50;;;13.90;;
47155;SDS011;32908;52.344;16.858;2023-06-19T06:12:14;23.00;;;14.90;;
47155;SDS011;32908;52.344;16.858;2023-06-19T06:14:42;25.80;;;13.60;;
47155;SDS011;32908;52.344;16.858;2023-06-19T06:17:10;19.40;;;12.50;;
47155;SDS011;32908;52.344;16.858;2023-06-19T06:19:38;20.20;;;12.30;;
47155;SDS011;32908;52.344;16.858;2023-06-19T06:22:06;16.90;;;12.80;;
47155;SDS011;32908;52.344;16.858;2023-06-19T06:24:34;16.40;;;12.70;;
47155;SDS011;32908;52.344;16.858;2023-06-19T06:27:02;16.10;;;12.20;;
47155;SDS011;32908;52.344;16.858;2023-06-19T06:29:32;16.20;;;11.90;;
47155;SDS011;32908;52.344;16.858;2023-06-19T06:32:03;17.20;;;12.30;;
47155;SDS011;32908;52.344;16.858;2023-06-19T06:34:32;17.30;;;12.00;;
47155;SDS011;32908;52.344;16.858;2023-06-19T06:37:00;11.30;;;10.10;;
47155;SDS011;32908;52.344;16.858;2023-06-19T06:39:29;11.80;;;9.80;;
47155;SDS011;32908;52.344;16.858;2023-06-19T06:41:57;12.40;;;8.50;;
47155;SDS011;32908;52.344;16.858;2023-06-19T06:44:25;12.50;;;8.60;;
47155;SDS011;32908;52.344;16.858;2023-06-19T06:46:53;10.00;;;8.60;;
47155;SDS011;32908;52.344;16.858;2023-06-19T06:49:22;10.00;;;9.00;;
47155;SDS011;32908;52.344;16.858;2023-06-19T06:51:49;14.40;;;8.70;;
47155;SDS011;32908;52.344;16.858;2023-06-19T06:54:18;13.80;;;8.40;;
47155;SDS011;32908;52.344;16.858;2023-06-19T06:56:45;9.20;;;8.40;;
47155;SDS011;32908;52.344;16.858;2023-06-19T06:59:14;7.90;;;7.20;;
47155;SDS011;32908;52.344;16.858;2023-06-19T07:01:42;7.60;;;6.90;;
47155;SDS011;32908;52.344;16.858;2023-06-19T07:04:10;7.20;;;6.20;;
47155;SDS011;32908;52.344;16.858;2023-06-19T07:06:37;6.90;;;5.70;;
47155;SDS011;32908;52.344;16.858;2023-06-19T07:09:05;6.10;;;5.50;;
47155;SDS011;32908;52.344;16.858;2023-06-19T07:11:33;6.20;;;5.70;;
47155;SDS011;32908;52.344;16.858;2023-06-19T07:14:02;6.90;;;5.70;;
47155;SDS011;32908;52.344;16.858;2023-06-19T07:16:30;5.70;;;5.20;;
47155;SDS011;32908;52.344;16.858;2023-06-19T07:18:58;4.80;;;4.40;;
47155;SDS011;32908;52.344;16.858;2023-06-19T07:21:26;4.70;;;4.30;;
47155;SDS011;32908;52.344;16.858;2023-06-19T07:23:55;5.50;;;5.00;;
47155;SDS011;32908;52.344;16.858;2023-06-19T07:26:23;5.40;;;4.90;;
47155;SDS011;32908;52.344;16.858;2023-06-19T07:28:51;4.50;;;4.00;;
47155;SDS011;32908;52.344;16.858;2023-06-19T07:31:19;4.40;;;4.00;;
47155;SDS011;32908;52.344;16.858;2023-06-19T07:33:47;4.10;;;3.70;;
47155;SDS011;32908;52.344;16.858;2023-06-19T07:36:14;4.20;;;3.80;;
47155;SDS011;32908;52.344;16.858;2023-06-19T07:38:43;4.60;;;4.20;;
47155;SDS011;32908;52.344;16.858;2023-06-19T07:41:11;5.00;;;4.20;;
47155;SDS011;32908;52.344;16.858;2023-06-19T07:43:39;7.60;;;4.90;;
47155;SDS011;32908;52.344;16.858;2023-06-19T07:46:07;5.00;;;4.60;;
47155;SDS011;32908;52.344;16.858;2023-06-19T07:48:35;5.20;;;4.40;;
47155;SDS011;32908;52.344;16.858;2023-06-19T07:51:03;6.10;;;5.00;;
47155;SDS011;32908;52.344;16.858;2023-06-19T07:53:31;4.90;;;4.30;;
47155;SDS011;32908;52.344;16.858;2023-06-19T07:55:59;5.70;;;4.70;;
47155;SDS011;32908;52.344;16.858;2023-06-19T07:58:27;5.40;;;4.70;;
47155;SDS011;32908;52.344;16.858;2023-06-19T08:00:56;5.00;;;4.50;;
47155;SDS011;32908;52.344;16.858;2023-06-19T08:03:24;8.20;;;4.80;;
47155;SDS011;32908;52.344;16.858;2023-06-19T08:05:52;4.80;;;4.40;;
47155;SDS011;32908;52.344;16.858;2023-06-19T08:08:20;5.30;;;4.80;;
47155;SDS011;32908;52.344;16.858;2023-06-19T08:10:48;4.70;;;4.30;;
47155;SDS011;32908;52.344;16.858;2023-06-19T08:13:16;4.60;;;4.20;;
47155;SDS011;32908;52.344;16.858;2023-06-19T08:15:44;5.10;;;4.70;;
47155;SDS011;32908;52.344;16.858;2023-06-19T08:18:12;6.20;;;4.80;;
47155;SDS011;32908;52.344;16.858;2023-06-19T08:20:40;9.60;;;4.80;;
47155;SDS011;32908;52.344;16.858;2023-06-19T08:23:08;6.50;;;4.50;;
47155;SDS011;32908;52.344;16.858;2023-06-19T08:25:36;5.50;;;4.40;;
47155;SDS011;32908;52.344;16.858;2023-06-19T08:28:04;4.50;;;4.10;;
47155;SDS011;32908;52.344;16.858;2023-06-19T08:30:32;5.00;;;4.60;;
47155;SDS011;32908;52.344;16.858;2023-06-19T08:33:00;4.40;;;4.00;;
47155;SDS011;32908;52.344;16.858;2023-06-19T08:35:28;4.60;;;4.20;;
47155;SDS011;32908;52.344;16.858;2023-06-19T08:37:56;5.50;;;4.30;;
47155;SDS011;32908;52.344;16.858;2023-06-19T08:40:24;7.40;;;4.30;;
47155;SDS011;32908;52.344;16.858;2023-06-19T08:42:52;5.00;;;4.60;;
47155;SDS011;32908;52.344;16.858;2023-06-19T08:45:22;5.90;;;4.70;;
47155;SDS011;32908;52.344;16.858;2023-06-19T08:56:02;13.10;;;5.10;;
47155;SDS011;32908;52.344;16.858;2023-06-19T08:58:30;6.90;;;5.20;;
47155;SDS011;32908;52.344;16.858;2023-06-19T09:00:58;5.20;;;4.70;;
47155;SDS011;32908;52.344;16.858;2023-06-19T09:03:26;4.80;;;4.30;;
47155;SDS011;32908;52.344;16.858;2023-06-19T09:05:54;5.30;;;4.10;;
47155;SDS011;32908;52.344;16.858;2023-06-19T09:08:22;4.50;;;4.10;;
47155;SDS011;32908;52.344;16.858;2023-06-19T09:10:56;5.90;;;4.30;;
47155;SDS011;32908;52.344;16.858;2023-06-19T09:13:25;6.80;;;4.20;;
47155;SDS011;32908;52.344;16.858;2023-06-19T09:15:58;4.90;;;4.50;;
47155;SDS011;32908;52.344;16.858;2023-06-19T09:18:26;7.40;;;4.60;;
47155;SDS011;32908;52.344;16.858;2023-06-19T09:20:55;5.00;;;4.40;;
47155;SDS011;32908;52.344;16.858;2023-06-19T09:23:23;5.60;;;4.30;;
47155;SDS011;32908;52.344;16.858;2023-06-19T09:25:51;7.80;;;5.00;;
47155;SDS011;32908;52.344;16.858;2023-06-19T09:28:21;5.80;;;4.30;;
47155;SDS011;32908;52.344;16.858;2023-06-19T09:30:56;5.00;;;4.50;;
47155;SDS011;32908;52.344;16.858;2023-06-19T09:33:25;6.60;;;4.70;;
47155;SDS011;32908;52.344;16.858;2023-06-19T09:35:54;4.60;;;4.20;;
47155;SDS011;32908;52.344;16.858;2023-06-19T09:38:23;4.70;;;4.20;;
47155;SDS011;32908;52.344;16.858;2023-06-19T09:40:52;5.00;;;4.50;;
47155;SDS011;32908;52.344;16.858;2023-06-19T09:43:25;4.90;;;4.40;;
47155;SDS011;32908;52.344;16.858;2023-06-19T09:45:55;4.80;;;4.30;;
47155;SDS011;32908;52.344;16.858;2023-06-19T09:48:26;7.60;;;4.20;;
47155;SDS011;32908;52.344;16.858;2023-06-19T09:51:03;6.70;;;4.60;;
47155;SDS011;32908;52.344;16.858;2023-06-19T09:53:33;8.90;;;4.70;;
47155;SDS011;32908;52.344;16.858;2023-06-19T09:56:02;7.20;;;4.10;;
47155;SDS011;32908;52.344;16.858;2023-06-19T09:58:30;5.70;;;4.70;;
47155;SDS011;32908;52.344;16.858;2023-06-19T10:00:58;7.20;;;4.40;;
47155;SDS011;32908;52.344;16.858;2023-06-19T10:03:31;7.00;;;4.40;;
47155;SDS011;32908;52.344;16.858;2023-06-19T10:05:59;8.00;;;4.60;;
47155;SDS011;32908;52.344;16.858;2023-06-19T10:08:28;7.40;;;4.30;;
47155;SDS011;32908;52.344;16.858;2023-06-19T10:10:56;4.60;;;4.00;;
47155;SDS011;32908;52.344;16.858;2023-06-19T10:13:31;7.40;;;4.10;;
47155;SDS011;32908;52.344;16.858;2023-06-19T10:16:00;5.30;;;4.40;;
47155;SDS011;32908;52.344;16.858;2023-06-19T10:18:28;5.80;;;4.20;;
47155;SDS011;32908;52.344;16.858;2023-06-19T10:20:58;6.30;;;4.30;;
47155;SDS011;32908;52.344;16.858;2023-06-19T10:23:26;5.90;;;4.20;;
47155;SDS011;32908;52.344;16.858;2023-06-19T10:25:56;4.30;;;3.80;;
47155;SDS011;32908;52.344;16.858;2023-06-19T10:28:25;5.40;;;4.00;;
47155;SDS011;32908;52.344;16.858;2023-06-19T10:30:54;7.30;;;3.90;;
47155;SDS011;32908;52.344;16.858;2023-06-19T10:33:23;5.10;;;4.60;;
47155;SDS011;32908;52.344;16.858;2023-06-19T10:35:52;6.40;;;4.10;;
47155;SDS011;32908;52.344;16.858;2023-06-19T10:38:21;6.00;;;4.20;;
47155;SDS011;32908;52.344;16.858;2023-06-19T10:40:49;6.50;;;4.00;;
47155;SDS011;32908;52.344;16.858;2023-06-19T10:43:19;5.50;;;4.30;;
47155;SDS011;32908;52.344;16.858;2023-06-19T10:45:48;6.00;;;4.20;;
47155;SDS011;32908;52.344;16.858;2023-06-19T10:48:18;4.50;;;4.10;;
47155;SDS011;32908;52.344;16.858;2023-06-19T10:50:47;7.70;;;4.90;;
47155;SDS011;32908;52.344;16.858;2023-06-19T10:53:25;6.90;;;4.60;;
47155;SDS011;32908;52.344;16.858;2023-06-19T10:55:57;6.00;;;4.20;;
47155;SDS011;32908;52.344;16.858;2023-06-19T10:58:25;4.70;;;4.20;;
47155;SDS011;32908;52.344;16.858;2023-06-19T11:00:53;4.80;;;4.20;;
47155;SDS011;32908;52.344;16.858;2023-06-19T11:03:21;4.00;;;3.70;;
47155;SDS011;32908;52.344;16.858;2023-06-19T11:05:49;4.30;;;3.90;;
47155;SDS011;32908;52.344;16.858;2023-06-19T11:08:20;5.20;;;3.80;;
47155;SDS011;32908;52.344;16.858;2023-06-19T11:10:49;11.10;;;3.90;;
47155;SDS011;32908;52.344;16.858;2023-06-19T11:13:18;4.70;;;4.20;;
47155;SDS011;32908;52.344;16.858;2023-06-19T11:15:47;4.50;;;4.00;;
47155;SDS011;32908;52.344;16.858;2023-06-19T11:18:16;4.00;;;3.60;;
47155;SDS011;32908;52.344;16.858;2023-06-19T11:20:45;4.10;;;3.80;;
47155;SDS011;32908;52.344;16.858;2023-06-19T11:23:16;3.70;;;3.30;;
47155;SDS011;32908;52.344;16.858;2023-06-19T11:25:51;3.80;;;3.40;;
47155;SDS011;32908;52.344;16.858;2023-06-19T11:28:18;5.00;;;4.10;;
47155;SDS011;32908;52.344;16.858;2023-06-19T11:30:49;5.20;;;4.20;;
47155;SDS011;32908;52.344;16.858;2023-06-19T11:33:24;6.20;;;4.00;;
47155;SDS011;32908;52.344;16.858;2023-06-19T11:35:52;5.30;;;4.80;;
47155;SDS011;32908;52.344;16.858;2023-06-19T11:38:22;5.30;;;4.50;;
47155;SDS011;32908;52.344;16.858;2023-06-19T11:40:50;4.50;;;4.10;;
47155;SDS011;32908;52.344;16.858;2023-06-19T11:43:24;5.40;;;4.20;;
47155;SDS011;32908;52.344;16.858;2023-06-19T11:45:53;4.30;;;3.90;;
47155;SDS011;32908;52.344;16.858;2023-06-19T11:48:24;5.20;;;4.30;;
47155;SDS011;32908;52.344;16.858;2023-06-19T11:50:52;6.60;;;4.40;;
47155;SDS011;32908;52.344;16.858;2023-06-19T11:53:21;4.30;;;3.90;;
47155;SDS011;32908;52.344;16.858;2023-06-19T11:55:50;5.00;;;4.50;;
47155;SDS011;32908;52.344;16.858;2023-06-19T11:58:18;5.70;;;4.10;;
47155;SDS011;32908;52.344;16.858;2023-06-19T12:00:47;4.30;;;3.80;;
47155;SDS011;32908;52.344;16.858;2023-06-19T12:03:14;6.40;;;4.80;;
47155;SDS011;32908;52.344;16.858;2023-06-19T12:05:42;6.30;;;3.80;;
47155;SDS011;32908;52.344;16.858;2023-06-19T12:08:10;6.80;;;4.40;;
47155;SDS011;32908;52.344;16.858;2023-06-19T12:10:38;5.40;;;4.10;;
47155;SDS011;32908;52.344;16.858;2023-06-19T12:13:06;5.80;;;4.20;;
47155;SDS011;32908;52.344;16.858;2023-06-19T12:15:34;6.00;;;4.60;;
47155;SDS011;32908;52.344;16.858;2023-06-19T12:18:02;4.90;;;4.40;;
47155;SDS011;32908;52.344;16.858;2023-06-19T12:20:33;4.40;;;4.00;;
47155;SDS011;32908;52.344;16.858;2023-06-19T12:23:01;7.10;;;4.30;;
47155;SDS011;32908;52.344;16.858;2023-06-19T12:25:29;4.80;;;4.30;;
47155;SDS011;32908;52.344;16.858;2023-06-19T12:27:57;5.60;;;4.40;;
47155;SDS011;32908;52.344;16.858;2023-06-19T12:30:25;5.50;;;4.70;;
47155;SDS011;32908;52.344;16.858;2023-06-19T12:32:52;5.00;;;4.40;;
47155;SDS011;32908;52.344;16.858;2023-06-19T12:35:20;6.40;;;4.80;;
47155;SDS011;32908;52.344;16.858;2023-06-19T12:37:49;4.80;;;4.20;;
47155;SDS011;32908;52.344;16.858;2023-06-19T12:40:17;4.80;;;4.40;;
47155;SDS011;32908;52.344;16.858;2023-06-19T12:42:45;6.80;;;4.80;;
47155;SDS011;32908;52.344;16.858;2023-06-19T12:45:13;6.50;;;4.90;;
47155;SDS011;32908;52.344;16.858;2023-06-19T12:47:41;4.80;;;4.20;;
47155;SDS011;32908;52.344;16.858;2023-06-19T12:50:09;5.90;;;4.30;;
47155;SDS011;32908;52.344;16.858;2023-06-19T12:52:38;5.50;;;4.40;;
47155;SDS011;32908;52.344;16.858;2023-06-19T12:55:06;4.80;;;4.30;;
47155;SDS011;32908;52.344;16.858;2023-06-19T12:57:35;4.40;;;4.00;;
47155;SDS011;32908;52.344;16.858;2023-06-19T13:00:03;6.50;;;4.30;;
47155;SDS011;32908;52.344;16.858;2023-06-19T13:02:34;4.60;;;4.20;;
47155;SDS011;32908;52.344;16.858;2023-06-19T13:05:02;5.70;;;4.40;;
47155;SDS011;32908;52.344;16.858;2023-06-19T13:07:30;8.60;;;4.30;;
47155;SDS011;32908;52.344;16.858;2023-06-19T13:44:54;5.40;;;4.20;;
47155;SDS011;32908;52.344;16.858;2023-06-19T13:47:22;5.30;;;4.50;;
47155;SDS011;32908;52.344;16.858;2023-06-19T13:49:51;5.10;;;4.30;;
47155;SDS011;32908;52.344;16.858;2023-06-19T13:52:19;4.80;;;4.40;;
47155;SDS011;32908;52.344;16.858;2023-06-19T13:54:47;21.00;;;5.10;;
47155;SDS011;32908;52.344;16.858;2023-06-19T13:57:15;7.30;;;4.40;;
47155;SDS011;32908;52.344;16.858;2023-06-19T13:59:43;7.00;;;4.40;;
47155;SDS011;32908;52.344;16.858;2023-06-19T14:02:11;4.90;;;4.10;;
47155;SDS011;32908;52.344;16.858;2023-06-19T14:04:39;5.00;;;4.20;;
47155;SDS011;32908;52.344;16.858;2023-06-19T14:07:07;7.00;;;4.20;;
47155;SDS011;32908;52.344;16.858;2023-06-19T14:09:35;5.30;;;4.00;;
47155;SDS011;32908;52.344;16.858;2023-06-19T14:12:04;3.80;;;3.50;;
47155;SDS011;32908;52.344;16.858;2023-06-19T14:14:32;5.70;;;4.40;;
47155;SDS011;32908;52.344;16.858;2023-06-19T14:17:00;4.50;;;3.80;;
47155;SDS011;32908;52.344;16.858;2023-06-19T14:19:28;4.80;;;3.90;;
47155;SDS011;32908;52.344;16.858;2023-06-19T14:21:56;6.60;;;3.60;;
47155;SDS011;32908;52.344;16.858;2023-06-19T14:24:24;3.80;;;3.50;;
47155;SDS011;32908;52.344;16.858;2023-06-19T14:26:52;4.40;;;3.70;;
47155;SDS011;32908;52.344;16.858;2023-06-19T14:29:19;4.10;;;3.70;;
47155;SDS011;32908;52.344;16.858;2023-06-19T14:31:47;9.40;;;4.10;;
47155;SDS011;32908;52.344;16.858;2023-06-19T14:34:15;4.20;;;3.80;;
47155;SDS011;32908;52.344;16.858;2023-06-19T14:36:43;6.10;;;3.80;;
47155;SDS011;32908;52.344;16.858;2023-06-19T14:39:11;4.90;;;3.70;;
47155;SDS011;32908;52.344;16.858;2023-06-19T14:41:39;7.20;;;3.70;;
47155;SDS011;32908;52.344;16.858;2023-06-19T14:44:07;10.80;;;4.30;;
47155;SDS011;32908;52.344;16.858;2023-06-19T14:46:35;6.30;;;4.00;;
47155;SDS011;32908;52.344;16.858;2023-06-19T14:49:06;5.50;;;4.20;;
47155;SDS011;32908;52.344;16.858;2023-06-19T14:51:34;4.30;;;3.70;;
47155;SDS011;32908;52.344;16.858;2023-06-19T14:54:02;6.00;;;4.20;;
47155;SDS011;32908;52.344;16.858;2023-06-19T14:56:30;7.50;;;4.20;;
47155;SDS011;32908;52.344;16.858;2023-06-19T14:58:58;6.70;;;4.10;;
47155;SDS011;32908;52.344;16.858;2023-06-19T15:01:26;7.20;;;4.20;;
47155;SDS011;32908;52.344;16.858;2023-06-19T15:03:54;6.00;;;3.70;;
47155;SDS011;32908;52.344;16.858;2023-06-19T15:06:22;14.10;;;4.50;;
47155;SDS011;32908;52.344;16.858;2023-06-19T15:08:49;7.00;;;4.10;;
47155;SDS011;32908;52.344;16.858;2023-06-19T15:11:17;4.20;;;3.80;;
47155;SDS011;32908;52.344;16.858;2023-06-19T15:13:46;6.20;;;4.00;;